Terminal Aerodrome Forecast
Issued by NWS

Home | Current Version | Previous Version | Text Only | Print | Product List | Glossary On
Versions: 1 2 3 4 5 6 7 8 9 10 11 12
000
FTAK31 PAJN 071700
TAFAJN
TAF
PAJN 071723Z 0718/0818 24006KT P6SM SCT100 BKN200
     FM072100 24010KT P6SM SCT050 OVC100
     FM080300 VRB04KT P6SM VCSH SCT040 OVC070
     FM081000 VRB03KT P6SM -RA BKN035 OVC050
     FM081600 09005KT P6SM VCSH SCT035 OVC060=

USA.gov is the U.S. government's official web portal to all federal, state and local government web resources and services.